Terminal Aerodrome Forecast
Issued by NWS

Home | Current Version | Previous Version | Text Only | Print | Product List | Glossary On
Versions: 1 2 3 4 5 6 7 8 9 10 11 12 13 14 15
000
FTUS41 KPHI 262325
TAFMIV
TAF
KMIV 262325Z 2700/2724 08010KT 6SM BR OVC006
      TEMPO 2700/2703 4SM BR
     FM270300 08005KT 4SM BR OVC005
     FM270500 VRB03KT 1SM BR OVC004
     FM271200 13005KT 6SM BR BKN015
     FM271500 20010KT P6SM SCT030 BKN150
     FM272100 19005KT P6SM VCSH BKN050=

USA.gov is the U.S. government's official web portal to all federal, state and local government web resources and services.